sensor_id;sensor_type;location;lat;lon;timestamp;P1;durP1;ratioP1;P2;durP2;ratioP2
73023;SDS011;61199;47.526;8.538;2023-07-13T00:01:46;12.33;;;5.30;;
73023;SDS011;61199;47.526;8.538;2023-07-13T00:04:16;10.27;;;5.27;;
73023;SDS011;61199;47.526;8.538;2023-07-13T00:06:44;10.20;;;4.23;;
73023;SDS011;61199;47.526;8.538;2023-07-13T00:09:12;8.77;;;5.20;;
73023;SDS011;61199;47.526;8.538;2023-07-13T00:11:40;18.70;;;5.57;;
73023;SDS011;61199;47.526;8.538;2023-07-13T00:14:07;9.13;;;5.47;;
73023;SDS011;61199;47.526;8.538;2023-07-13T00:16:35;16.00;;;5.17;;
73023;SDS011;61199;47.526;8.538;2023-07-13T00:19:03;14.47;;;5.20;;
73023;SDS011;61199;47.526;8.538;2023-07-13T00:21:31;9.30;;;4.20;;
73023;SDS011;61199;47.526;8.538;2023-07-13T00:23:58;6.27;;;4.17;;
73023;SDS011;61199;47.526;8.538;2023-07-13T00:26:24;7.50;;;5.10;;
73023;SDS011;61199;47.526;8.538;2023-07-13T00:28:51;6.23;;;4.60;;
73023;SDS011;61199;47.526;8.538;2023-07-13T00:31:17;10.30;;;5.27;;
73023;SDS011;61199;47.526;8.538;2023-07-13T00:33:44;9.73;;;4.83;;
73023;SDS011;61199;47.526;8.538;2023-07-13T00:36:11;16.60;;;5.10;;
73023;SDS011;61199;47.526;8.538;2023-07-13T00:38:38;12.40;;;5.90;;
73023;SDS011;61199;47.526;8.538;2023-07-13T00:41:04;11.57;;;4.90;;
73023;SDS011;61199;47.526;8.538;2023-07-13T00:43:31;7.63;;;5.10;;
73023;SDS011;61199;47.526;8.538;2023-07-13T00:48:26;12.87;;;5.53;;
73023;SDS011;61199;47.526;8.538;2023-07-13T00:50:55;22.33;;;6.80;;
73023;SDS011;61199;47.526;8.538;2023-07-13T00:53:24;9.60;;;5.37;;
73023;SDS011;61199;47.526;8.538;2023-07-13T00:55:54;11.97;;;5.33;;
73023;SDS011;61199;47.526;8.538;2023-07-13T00:58:23;10.90;;;4.93;;
73023;SDS011;61199;47.526;8.538;2023-07-13T01:00:51;8.17;;;4.90;;
73023;SDS011;61199;47.526;8.538;2023-07-13T01:03:18;11.67;;;5.93;;
73023;SDS011;61199;47.526;8.538;2023-07-13T01:05:46;11.73;;;4.93;;
73023;SDS011;61199;47.526;8.538;2023-07-13T01:08:15;8.03;;;4.60;;
73023;SDS011;61199;47.526;8.538;2023-07-13T01:10:50;9.13;;;5.17;;
73023;SDS011;61199;47.526;8.538;2023-07-13T01:13:20;15.20;;;5.67;;
73023;SDS011;61199;47.526;8.538;2023-07-13T01:15:48;10.63;;;5.43;;
73023;SDS011;61199;47.526;8.538;2023-07-13T01:18:18;10.37;;;5.00;;
73023;SDS011;61199;47.526;8.538;2023-07-13T01:20:50;10.10;;;5.00;;
73023;SDS011;61199;47.526;8.538;2023-07-13T01:23:18;12.10;;;5.40;;
73023;SDS011;61199;47.526;8.538;2023-07-13T01:25:45;14.00;;;4.93;;
73023;SDS011;61199;47.526;8.538;2023-07-13T01:28:12;9.67;;;5.40;;
73023;SDS011;61199;47.526;8.538;2023-07-13T01:30:39;9.10;;;5.20;;
73023;SDS011;61199;47.526;8.538;2023-07-13T01:33:07;7.70;;;4.30;;
73023;SDS011;61199;47.526;8.538;2023-07-13T01:35:34;10.80;;;5.27;;
73023;SDS011;61199;47.526;8.538;2023-07-13T01:38:01;8.97;;;5.50;;
73023;SDS011;61199;47.526;8.538;2023-07-13T01:40:28;13.07;;;5.47;;
73023;SDS011;61199;47.526;8.538;2023-07-13T01:42:55;15.80;;;4.83;;
73023;SDS011;61199;47.526;8.538;2023-07-13T01:45:24;9.97;;;4.83;;
73023;SDS011;61199;47.526;8.538;2023-07-13T01:47:50;10.17;;;4.97;;
73023;SDS011;61199;47.526;8.538;2023-07-13T01:50:16;16.50;;;4.97;;
73023;SDS011;61199;47.526;8.538;2023-07-13T01:52:43;6.70;;;4.40;;
73023;SDS011;61199;47.526;8.538;2023-07-13T01:55:10;6.20;;;4.00;;
73023;SDS011;61199;47.526;8.538;2023-07-13T01:57:36;11.27;;;4.17;;
73023;SDS011;61199;47.526;8.538;2023-07-13T02:00:04;12.50;;;4.90;;
73023;SDS011;61199;47.526;8.538;2023-07-13T02:02:33;7.60;;;3.57;;
73023;SDS011;61199;47.526;8.538;2023-07-13T02:04:59;7.03;;;4.60;;
73023;SDS011;61199;47.526;8.538;2023-07-13T02:07:26;10.37;;;4.13;;
73023;SDS011;61199;47.526;8.538;2023-07-13T02:09:52;8.80;;;4.10;;
73023;SDS011;61199;47.526;8.538;2023-07-13T02:12:19;10.37;;;5.00;;
73023;SDS011;61199;47.526;8.538;2023-07-13T02:14:45;9.93;;;4.60;;
73023;SDS011;61199;47.526;8.538;2023-07-13T02:17:12;8.80;;;4.53;;
73023;SDS011;61199;47.526;8.538;2023-07-13T02:19:39;9.83;;;4.53;;
73023;SDS011;61199;47.526;8.538;2023-07-13T02:22:06;9.63;;;5.07;;
73023;SDS011;61199;47.526;8.538;2023-07-13T02:24:32;10.77;;;5.10;;
73023;SDS011;61199;47.526;8.538;2023-07-13T02:26:59;12.87;;;4.70;;
73023;SDS011;61199;47.526;8.538;2023-07-13T02:29:25;10.20;;;4.70;;
73023;SDS011;61199;47.526;8.538;2023-07-13T02:31:52;7.37;;;4.40;;
73023;SDS011;61199;47.526;8.538;2023-07-13T02:34:21;12.23;;;5.00;;
73023;SDS011;61199;47.526;8.538;2023-07-13T02:36:48;9.30;;;4.37;;
73023;SDS011;61199;47.526;8.538;2023-07-13T02:39:15;7.83;;;4.07;;
73023;SDS011;61199;47.526;8.538;2023-07-13T02:41:41;9.40;;;3.90;;
73023;SDS011;61199;47.526;8.538;2023-07-13T02:44:08;12.23;;;4.50;;
73023;SDS011;61199;47.526;8.538;2023-07-13T02:46:35;11.00;;;4.10;;
73023;SDS011;61199;47.526;8.538;2023-07-13T02:49:03;9.70;;;5.63;;
73023;SDS011;61199;47.526;8.538;2023-07-13T02:51:30;7.93;;;4.80;;
73023;SDS011;61199;47.526;8.538;2023-07-13T02:54:00;14.03;;;5.07;;
73023;SDS011;61199;47.526;8.538;2023-07-13T02:56:28;10.97;;;4.60;;
73023;SDS011;61199;47.526;8.538;2023-07-13T02:58:56;10.30;;;5.30;;
73023;SDS011;61199;47.526;8.538;2023-07-13T03:01:24;10.13;;;4.60;;
73023;SDS011;61199;47.526;8.538;2023-07-13T03:03:52;10.13;;;4.23;;
73023;SDS011;61199;47.526;8.538;2023-07-13T03:06:18;12.63;;;3.80;;
73023;SDS011;61199;47.526;8.538;2023-07-13T03:08:46;10.30;;;4.83;;
73023;SDS011;61199;47.526;8.538;2023-07-13T03:11:17;6.90;;;4.10;;
73023;SDS011;61199;47.526;8.538;2023-07-13T03:13:45;7.50;;;4.53;;
73023;SDS011;61199;47.526;8.538;2023-07-13T03:16:12;7.57;;;4.47;;
73023;SDS011;61199;47.526;8.538;2023-07-13T03:18:45;10.33;;;4.30;;
73023;SDS011;61199;47.526;8.538;2023-07-13T03:21:12;9.80;;;4.83;;
73023;SDS011;61199;47.526;8.538;2023-07-13T03:23:39;12.00;;;4.80;;
73023;SDS011;61199;47.526;8.538;2023-07-13T03:26:10;13.33;;;5.33;;
73023;SDS011;61199;47.526;8.538;2023-07-13T03:28:40;12.40;;;4.50;;
73023;SDS011;61199;47.526;8.538;2023-07-13T03:31:11;11.50;;;5.20;;
73023;SDS011;61199;47.526;8.538;2023-07-13T03:33:40;7.17;;;4.80;;
73023;SDS011;61199;47.526;8.538;2023-07-13T03:36:09;7.03;;;4.93;;
73023;SDS011;61199;47.526;8.538;2023-07-13T03:38:39;12.10;;;6.00;;
73023;SDS011;61199;47.526;8.538;2023-07-13T03:41:06;10.20;;;5.53;;
73023;SDS011;61199;47.526;8.538;2023-07-13T03:43:32;11.50;;;5.33;;
73023;SDS011;61199;47.526;8.538;2023-07-13T03:45:59;14.37;;;5.17;;
73023;SDS011;61199;47.526;8.538;2023-07-13T03:48:25;13.73;;;6.10;;
73023;SDS011;61199;47.526;8.538;2023-07-13T03:50:52;10.63;;;5.43;;
73023;SDS011;61199;47.526;8.538;2023-07-13T03:53:18;12.10;;;5.40;;
73023;SDS011;61199;47.526;8.538;2023-07-13T03:55:45;10.70;;;5.20;;
73023;SDS011;61199;47.526;8.538;2023-07-13T04:01:02;12.23;;;5.50;;
73023;SDS011;61199;47.526;8.538;2023-07-13T04:03:29;15.57;;;5.03;;
73023;SDS011;61199;47.526;8.538;2023-07-13T04:06:02;18.80;;;5.30;;
73023;SDS011;61199;47.526;8.538;2023-07-13T04:08:31;10.60;;;5.07;;
73023;SDS011;61199;47.526;8.538;2023-07-13T04:11:02;12.00;;;4.87;;
73023;SDS011;61199;47.526;8.538;2023-07-13T04:13:30;13.07;;;5.00;;
73023;SDS011;61199;47.526;8.538;2023-07-13T04:15:56;9.57;;;6.03;;
73023;SDS011;61199;47.526;8.538;2023-07-13T04:18:23;10.77;;;5.07;;
73023;SDS011;61199;47.526;8.538;2023-07-13T04:20:49;11.63;;;5.10;;
73023;SDS011;61199;47.526;8.538;2023-07-13T04:23:17;14.70;;;5.40;;
73023;SDS011;61199;47.526;8.538;2023-07-13T04:25:47;12.90;;;5.53;;
73023;SDS011;61199;47.526;8.538;2023-07-13T04:28:20;12.47;;;5.17;;
73023;SDS011;61199;47.526;8.538;2023-07-13T04:30:48;9.63;;;4.70;;
73023;SDS011;61199;47.526;8.538;2023-07-13T04:33:15;15.73;;;5.20;;
73023;SDS011;61199;47.526;8.538;2023-07-13T04:35:45;11.60;;;4.80;;
73023;SDS011;61199;47.526;8.538;2023-07-13T04:38:15;12.47;;;5.80;;
73023;SDS011;61199;47.526;8.538;2023-07-13T04:40:44;13.03;;;5.67;;
73023;SDS011;61199;47.526;8.538;2023-07-13T04:43:11;16.57;;;4.83;;
73023;SDS011;61199;47.526;8.538;2023-07-13T04:45:37;10.27;;;4.50;;
73023;SDS011;61199;47.526;8.538;2023-07-13T04:48:04;20.87;;;9.53;;
73023;SDS011;61199;47.526;8.538;2023-07-13T04:50:31;10.27;;;5.10;;
73023;SDS011;61199;47.526;8.538;2023-07-13T04:52:57;8.93;;;4.87;;
73023;SDS011;61199;47.526;8.538;2023-07-13T04:55:24;13.70;;;4.80;;
73023;SDS011;61199;47.526;8.538;2023-07-13T04:57:50;7.80;;;5.00;;
73023;SDS011;61199;47.526;8.538;2023-07-13T05:00:17;18.77;;;5.50;;
73023;SDS011;61199;47.526;8.538;2023-07-13T05:02:44;9.90;;;5.20;;
73023;SDS011;61199;47.526;8.538;2023-07-13T05:05:12;8.97;;;4.90;;
73023;SDS011;61199;47.526;8.538;2023-07-13T05:07:39;7.80;;;4.60;;
73023;SDS011;61199;47.526;8.538;2023-07-13T05:10:05;9.03;;;5.07;;
73023;SDS011;61199;47.526;8.538;2023-07-13T05:12:32;8.43;;;4.63;;
73023;SDS011;61199;47.526;8.538;2023-07-13T05:14:59;9.20;;;4.47;;
73023;SDS011;61199;47.526;8.538;2023-07-13T05:17:26;10.47;;;4.40;;
73023;SDS011;61199;47.526;8.538;2023-07-13T05:19:52;12.80;;;5.00;;
73023;SDS011;61199;47.526;8.538;2023-07-13T05:22:18;8.37;;;4.90;;
73023;SDS011;61199;47.526;8.538;2023-07-13T05:24:45;9.80;;;4.90;;
73023;SDS011;61199;47.526;8.538;2023-07-13T05:27:11;10.90;;;4.30;;
73023;SDS011;61199;47.526;8.538;2023-07-13T05:29:38;8.10;;;4.47;;
73023;SDS011;61199;47.526;8.538;2023-07-13T05:32:04;8.43;;;4.60;;
73023;SDS011;61199;47.526;8.538;2023-07-13T05:34:31;8.27;;;4.43;;
73023;SDS011;61199;47.526;8.538;2023-07-13T05:36:58;10.93;;;4.83;;
73023;SDS011;61199;47.526;8.538;2023-07-13T05:39:24;9.97;;;4.43;;
73023;SDS011;61199;47.526;8.538;2023-07-13T05:41:52;7.90;;;4.97;;
73023;SDS011;61199;47.526;8.538;2023-07-13T05:44:18;10.93;;;4.10;;
73023;SDS011;61199;47.526;8.538;2023-07-13T05:46:45;7.13;;;4.40;;
73023;SDS011;61199;47.526;8.538;2023-07-13T05:49:12;11.00;;;4.13;;
73023;SDS011;61199;47.526;8.538;2023-07-13T05:51:38;11.40;;;4.43;;
73023;SDS011;61199;47.526;8.538;2023-07-13T05:54:04;12.27;;;4.77;;
73023;SDS011;61199;47.526;8.538;2023-07-13T05:56:31;9.83;;;4.47;;
73023;SDS011;61199;47.526;8.538;2023-07-13T05:58:57;6.40;;;4.33;;
73023;SDS011;61199;47.526;8.538;2023-07-13T06:01:24;8.27;;;4.53;;
73023;SDS011;61199;47.526;8.538;2023-07-13T06:03:50;11.17;;;4.93;;
73023;SDS011;61199;47.526;8.538;2023-07-13T06:06:17;12.17;;;4.80;;
73023;SDS011;61199;47.526;8.538;2023-07-13T06:08:43;7.80;;;3.53;;
73023;SDS011;61199;47.526;8.538;2023-07-13T06:11:14;6.70;;;3.70;;
73023;SDS011;61199;47.526;8.538;2023-07-13T06:13:46;9.53;;;4.40;;
73023;SDS011;61199;47.526;8.538;2023-07-13T06:16:13;6.97;;;3.60;;
73023;SDS011;61199;47.526;8.538;2023-07-13T06:18:40;8.33;;;3.90;;
73023;SDS011;61199;47.526;8.538;2023-07-13T06:21:07;11.00;;;5.20;;
73023;SDS011;61199;47.526;8.538;2023-07-13T06:23:44;11.70;;;4.60;;
73023;SDS011;61199;47.526;8.538;2023-07-13T06:26:14;8.17;;;4.37;;
73023;SDS011;61199;47.526;8.538;2023-07-13T06:28:40;7.63;;;4.23;;
73023;SDS011;61199;47.526;8.538;2023-07-13T06:31:07;9.60;;;4.53;;
73023;SDS011;61199;47.526;8.538;2023-07-13T06:33:35;5.77;;;3.90;;
73023;SDS011;61199;47.526;8.538;2023-07-13T06:36:03;11.00;;;4.23;;
73023;SDS011;61199;47.526;8.538;2023-07-13T06:38:31;9.27;;;4.47;;
73023;SDS011;61199;47.526;8.538;2023-07-13T06:40:58;8.20;;;4.20;;
73023;SDS011;61199;47.526;8.538;2023-07-13T06:43:24;8.63;;;4.63;;
73023;SDS011;61199;47.526;8.538;2023-07-13T06:45:53;11.77;;;4.70;;
73023;SDS011;61199;47.526;8.538;2023-07-13T06:48:21;8.13;;;5.23;;
73023;SDS011;61199;47.526;8.538;2023-07-13T06:50:48;7.23;;;4.50;;
73023;SDS011;61199;47.526;8.538;2023-07-13T06:53:17;11.20;;;4.53;;
73023;SDS011;61199;47.526;8.538;2023-07-13T06:55:45;11.23;;;4.10;;
73023;SDS011;61199;47.526;8.538;2023-07-13T06:58:12;6.33;;;4.10;;
73023;SDS011;61199;47.526;8.538;2023-07-13T07:00:39;14.20;;;4.67;;
73023;SDS011;61199;47.526;8.538;2023-07-13T07:03:06;10.80;;;5.20;;
73023;SDS011;61199;47.526;8.538;2023-07-13T07:05:33;12.50;;;4.97;;
73023;SDS011;61199;47.526;8.538;2023-07-13T07:07:59;8.30;;;5.07;;
73023;SDS011;61199;47.526;8.538;2023-07-13T07:10:26;10.70;;;4.93;;
73023;SDS011;61199;47.526;8.538;2023-07-13T07:12:55;11.70;;;4.23;;
73023;SDS011;61199;47.526;8.538;2023-07-13T07:15:22;9.63;;;4.87;;
73023;SDS011;61199;47.526;8.538;2023-07-13T07:17:48;10.40;;;4.20;;
73023;SDS011;61199;47.526;8.538;2023-07-13T07:20:15;9.27;;;4.90;;
73023;SDS011;61199;47.526;8.538;2023-07-13T07:22:41;8.93;;;4.70;;
73023;SDS011;61199;47.526;8.538;2023-07-13T07:25:08;10.23;;;5.60;;
73023;SDS011;61199;47.526;8.538;2023-07-13T07:27:34;13.67;;;5.47;;
73023;SDS011;61199;47.526;8.538;2023-07-13T07:30:04;10.00;;;5.83;;
73023;SDS011;61199;47.526;8.538;2023-07-13T07:32:34;10.70;;;5.63;;
73023;SDS011;61199;47.526;8.538;2023-07-13T07:35:04;13.40;;;6.23;;
73023;SDS011;61199;47.526;8.538;2023-07-13T07:37:30;10.37;;;5.67;;
73023;SDS011;61199;47.526;8.538;2023-07-13T07:40:00;14.10;;;5.17;;
73023;SDS011;61199;47.526;8.538;2023-07-13T07:42:29;10.30;;;5.20;;
73023;SDS011;61199;47.526;8.538;2023-07-13T07:44:55;5.20;;;3.90;;
73023;SDS011;61199;47.526;8.538;2023-07-13T07:47:22;8.50;;;4.50;;
73023;SDS011;61199;47.526;8.538;2023-07-13T07:49:50;10.83;;;4.67;;
73023;SDS011;61199;47.526;8.538;2023-07-13T07:52:16;8.73;;;4.80;;
73023;SDS011;61199;47.526;8.538;2023-07-13T07:54:43;10.03;;;4.87;;
73023;SDS011;61199;47.526;8.538;2023-07-13T07:57:12;8.80;;;4.73;;
73023;SDS011;61199;47.526;8.538;2023-07-13T07:59:41;7.47;;;4.43;;
73023;SDS011;61199;47.526;8.538;2023-07-13T08:02:11;7.33;;;4.03;;
73023;SDS011;61199;47.526;8.538;2023-07-13T08:04:57;7.20;;;3.80;;
73023;SDS011;61199;47.526;8.538;2023-07-13T08:07:27;6.30;;;3.53;;
73023;SDS011;61199;47.526;8.538;2023-07-13T08:09:53;9.63;;;3.90;;
73023;SDS011;61199;47.526;8.538;2023-07-13T08:12:20;8.53;;;3.87;;
73023;SDS011;61199;47.526;8.538;2023-07-13T08:14:50;6.53;;;3.77;;
73023;SDS011;61199;47.526;8.538;2023-07-13T08:17:20;6.37;;;3.70;;
73023;SDS011;61199;47.526;8.538;2023-07-13T08:19:47;7.67;;;3.80;;
73023;SDS011;61199;47.526;8.538;2023-07-13T08:22:13;7.70;;;4.13;;
73023;SDS011;61199;47.526;8.538;2023-07-13T08:24:40;6.57;;;3.10;;
73023;SDS011;61199;47.526;8.538;2023-07-13T08:27:08;6.13;;;3.23;;
73023;SDS011;61199;47.526;8.538;2023-07-13T08:29:37;7.17;;;3.50;;
73023;SDS011;61199;47.526;8.538;2023-07-13T08:32:04;9.10;;;3.57;;
73023;SDS011;61199;47.526;8.538;2023-07-13T08:34:32;7.37;;;3.43;;
73023;SDS011;61199;47.526;8.538;2023-07-13T08:36:58;6.07;;;3.50;;
73023;SDS011;61199;47.526;8.538;2023-07-13T08:39:25;8.20;;;3.93;;
73023;SDS011;61199;47.526;8.538;2023-07-13T08:41:55;5.73;;;2.97;;
73023;SDS011;61199;47.526;8.538;2023-07-13T08:45:12;12.30;;;3.20;;
73023;SDS011;61199;47.526;8.538;2023-07-13T08:47:38;4.93;;;3.63;;
73023;SDS011;61199;47.526;8.538;2023-07-13T08:50:11;10.80;;;2.90;;
73023;SDS011;61199;47.526;8.538;2023-07-13T08:52:40;5.30;;;3.10;;
73023;SDS011;61199;47.526;8.538;2023-07-13T08:55:16;6.53;;;3.30;;
73023;SDS011;61199;47.526;8.538;2023-07-13T08:57:48;10.50;;;3.43;;
73023;SDS011;61199;47.526;8.538;2023-07-13T09:00:25;5.53;;;3.53;;
73023;SDS011;61199;47.526;8.538;2023-07-13T09:03:04;9.83;;;3.10;;
73023;SDS011;61199;47.526;8.538;2023-07-13T09:05:39;9.60;;;3.47;;
73023;SDS011;61199;47.526;8.538;2023-07-13T09:08:12;7.63;;;3.37;;
73023;SDS011;61199;47.526;8.538;2023-07-13T09:11:11;8.53;;;3.20;;
73023;SDS011;61199;47.526;8.538;2023-07-13T09:13:56;6.27;;;2.97;;
73023;SDS011;61199;47.526;8.538;2023-07-13T09:16:33;13.40;;;3.63;;
73023;SDS011;61199;47.526;8.538;2023-07-13T09:19:02;6.60;;;3.27;;
73023;SDS011;61199;47.526;8.538;2023-07-13T09:21:33;6.10;;;2.53;;
73023;SDS011;61199;47.526;8.538;2023-07-13T09:27:19;7.40;;;3.00;;
73023;SDS011;61199;47.526;8.538;2023-07-13T09:29:49;3.87;;;2.60;;
73023;SDS011;61199;47.526;8.538;2023-07-13T09:32:28;5.90;;;3.00;;
73023;SDS011;61199;47.526;8.538;2023-07-13T09:34:55;6.20;;;2.83;;
73023;SDS011;61199;47.526;8.538;2023-07-13T09:37:22;17.83;;;3.07;;
73023;SDS011;61199;47.526;8.538;2023-07-13T09:39:54;8.80;;;3.63;;
73023;SDS011;61199;47.526;8.538;2023-07-13T09:42:22;6.77;;;3.30;;
73023;SDS011;61199;47.526;8.538;2023-07-13T09:44:53;5.80;;;3.30;;
73023;SDS011;61199;47.526;8.538;2023-07-13T09:47:21;5.80;;;3.10;;
73023;SDS011;61199;47.526;8.538;2023-07-13T09:52:28;4.90;;;3.30;;
73023;SDS011;61199;47.526;8.538;2023-07-13T09:55:26;10.40;;;3.07;;
73023;SDS011;61199;47.526;8.538;2023-07-13T09:57:54;13.30;;;3.60;;
73023;SDS011;61199;47.526;8.538;2023-07-13T10:00:22;7.83;;;3.50;;
73023;SDS011;61199;47.526;8.538;2023-07-13T10:03:04;6.70;;;3.10;;
73023;SDS011;61199;47.526;8.538;2023-07-13T10:05:41;6.60;;;3.20;;
73023;SDS011;61199;47.526;8.538;2023-07-13T10:11:10;3.87;;;3.03;;
73023;SDS011;61199;47.526;8.538;2023-07-13T10:13:43;11.40;;;2.87;;
73023;SDS011;61199;47.526;8.538;2023-07-13T10:16:16;5.00;;;3.17;;
73023;SDS011;61199;47.526;8.538;2023-07-13T10:18:45;5.50;;;3.33;;
73023;SDS011;61199;47.526;8.538;2023-07-13T10:21:18;10.67;;;3.17;;
73023;SDS011;61199;47.526;8.538;2023-07-13T10:24:20;5.07;;;2.60;;
73023;SDS011;61199;47.526;8.538;2023-07-13T10:26:52;7.17;;;3.60;;
73023;SDS011;61199;47.526;8.538;2023-07-13T10:29:24;7.50;;;2.80;;
73023;SDS011;61199;47.526;8.538;2023-07-13T10:31:53;8.90;;;2.87;;
73023;SDS011;61199;47.526;8.538;2023-07-13T10:34:20;6.77;;;2.50;;
73023;SDS011;61199;47.526;8.538;2023-07-13T10:36:47;9.17;;;2.77;;
73023;SDS011;61199;47.526;8.538;2023-07-13T10:39:22;11.57;;;2.57;;
73023;SDS011;61199;47.526;8.538;2023-07-13T10:42:02;7.53;;;2.57;;
73023;SDS011;61199;47.526;8.538;2023-07-13T10:44:32;8.30;;;2.90;;
73023;SDS011;61199;47.526;8.538;2023-07-13T10:47:01;7.17;;;3.73;;
73023;SDS011;61199;47.526;8.538;2023-07-13T10:49:33;5.40;;;2.80;;
73023;SDS011;61199;47.526;8.538;2023-07-13T10:52:02;7.17;;;3.20;;
73023;SDS011;61199;47.526;8.538;2023-07-13T10:54:30;6.20;;;2.53;;
73023;SDS011;61199;47.526;8.538;2023-07-13T10:59:39;5.10;;;2.60;;
73023;SDS011;61199;47.526;8.538;2023-07-13T11:02:12;11.27;;;2.60;;
73023;SDS011;61199;47.526;8.538;2023-07-13T11:04:48;7.67;;;2.63;;
73023;SDS011;61199;47.526;8.538;2023-07-13T11:07:54;6.80;;;2.97;;
73023;SDS011;61199;47.526;8.538;2023-07-13T11:10:45;6.60;;;2.60;;
73023;SDS011;61199;47.526;8.538;2023-07-13T11:21:28;13.13;;;3.07;;
73023;SDS011;61199;47.526;8.538;2023-07-13T11:24:02;7.03;;;3.30;;
73023;SDS011;61199;47.526;8.538;2023-07-13T11:29:23;8.03;;;2.63;;
73023;SDS011;61199;47.526;8.538;2023-07-13T11:31:57;4.30;;;2.40;;
73023;SDS011;61199;47.526;8.538;2023-07-13T11:34:36;13.37;;;2.80;;
73023;SDS011;61199;47.526;8.538;2023-07-13T11:37:09;11.90;;;2.20;;
73023;SDS011;61199;47.526;8.538;2023-07-13T11:39:42;4.57;;;2.27;;
73023;SDS011;61199;47.526;8.538;2023-07-13T11:42:13;6.20;;;2.80;;
73023;SDS011;61199;47.526;8.538;2023-07-13T11:44:42;6.90;;;2.50;;
73023;SDS011;61199;47.526;8.538;2023-07-13T11:47:29;4.77;;;2.30;;
73023;SDS011;61199;47.526;8.538;2023-07-13T11:49:57;11.47;;;2.20;;
73023;SDS011;61199;47.526;8.538;2023-07-13T11:52:27;3.93;;;2.43;;
73023;SDS011;61199;47.526;8.538;2023-07-13T11:55:00;9.83;;;2.47;;
73023;SDS011;61199;47.526;8.538;2023-07-13T11:57:38;4.97;;;2.50;;
73023;SDS011;61199;47.526;8.538;2023-07-13T12:00:11;5.83;;;2.40;;
73023;SDS011;61199;47.526;8.538;2023-07-13T12:02:42;6.53;;;2.77;;
73023;SDS011;61199;47.526;8.538;2023-07-13T12:05:12;10.60;;;2.30;;
73023;SDS011;61199;47.526;8.538;2023-07-13T12:07:41;6.20;;;3.03;;
73023;SDS011;61199;47.526;8.538;2023-07-13T12:12:34;10.57;;;2.87;;
73023;SDS011;61199;47.526;8.538;2023-07-13T12:15:05;6.13;;;2.60;;
73023;SDS011;61199;47.526;8.538;2023-07-13T12:17:33;15.53;;;2.30;;
73023;SDS011;61199;47.526;8.538;2023-07-13T12:20:03;4.87;;;2.27;;
73023;SDS011;61199;47.526;8.538;2023-07-13T12:23:04;8.80;;;3.00;;
73023;SDS011;61199;47.526;8.538;2023-07-13T12:25:35;11.90;;;2.87;;
73023;SDS011;61199;47.526;8.538;2023-07-13T12:28:02;4.50;;;2.67;;
73023;SDS011;61199;47.526;8.538;2023-07-13T12:31:00;6.80;;;2.70;;
73023;SDS011;61199;47.526;8.538;2023-07-13T12:33:28;6.97;;;2.60;;
73023;SDS011;61199;47.526;8.538;2023-07-13T12:35:56;18.77;;;2.17;;
73023;SDS011;61199;47.526;8.538;2023-07-13T12:38:24;6.63;;;2.40;;
73023;SDS011;61199;47.526;8.538;2023-07-13T12:40:51;13.93;;;2.70;;
73023;SDS011;61199;47.526;8.538;2023-07-13T12:43:20;12.50;;;2.70;;
73023;SDS011;61199;47.526;8.538;2023-07-13T12:48:28;6.03;;;2.10;;
73023;SDS011;61199;47.526;8.538;2023-07-13T12:51:12;6.67;;;2.70;;
73023;SDS011;61199;47.526;8.538;2023-07-13T12:53:41;12.00;;;2.57;;
73023;SDS011;61199;47.526;8.538;2023-07-13T12:56:16;4.60;;;2.53;;
73023;SDS011;61199;47.526;8.538;2023-07-13T12:58:47;8.37;;;2.53;;
73023;SDS011;61199;47.526;8.538;2023-07-13T13:01:21;10.47;;;2.90;;
73023;SDS011;61199;47.526;8.538;2023-07-13T13:03:50;5.83;;;2.53;;
73023;SDS011;61199;47.526;8.538;2023-07-13T13:08:46;7.73;;;2.40;;
73023;SDS011;61199;47.526;8.538;2023-07-13T13:11:15;6.03;;;2.23;;
73023;SDS011;61199;47.526;8.538;2023-07-13T13:13:42;5.43;;;2.63;;
73023;SDS011;61199;47.526;8.538;2023-07-13T13:18:45;4.80;;;2.70;;
73023;SDS011;61199;47.526;8.538;2023-07-13T13:21:12;2.83;;;1.93;;
73023;SDS011;61199;47.526;8.538;2023-07-13T13:23:38;7.43;;;2.40;;
73023;SDS011;61199;47.526;8.538;2023-07-13T13:26:08;6.67;;;2.60;;
73023;SDS011;61199;47.526;8.538;2023-07-13T13:28:37;5.10;;;2.30;;
73023;SDS011;61199;47.526;8.538;2023-07-13T13:31:04;15.17;;;2.77;;
73023;SDS011;61199;47.526;8.538;2023-07-13T13:33:30;5.70;;;2.20;;
73023;SDS011;61199;47.526;8.538;2023-07-13T13:35:57;4.87;;;1.90;;
73023;SDS011;61199;47.526;8.538;2023-07-13T13:38:26;7.63;;;2.20;;
73023;SDS011;61199;47.526;8.538;2023-07-13T13:40:54;4.13;;;1.97;;
73023;SDS011;61199;47.526;8.538;2023-07-13T13:43:22;6.70;;;2.57;;
73023;SDS011;61199;47.526;8.538;2023-07-13T13:45:56;5.00;;;2.07;;
73023;SDS011;61199;47.526;8.538;2023-07-13T13:48:33;4.50;;;2.17;;
73023;SDS011;61199;47.526;8.538;2023-07-13T13:51:06;5.07;;;2.03;;
73023;SDS011;61199;47.526;8.538;2023-07-13T13:53:39;4.60;;;2.30;;
73023;SDS011;61199;47.526;8.538;2023-07-13T13:56:06;5.27;;;2.00;;
73023;SDS011;61199;47.526;8.538;2023-07-13T13:58:33;10.53;;;2.27;;
73023;SDS011;61199;47.526;8.538;2023-07-13T14:01:00;5.87;;;2.23;;
73023;SDS011;61199;47.526;8.538;2023-07-13T14:03:26;2.67;;;1.87;;
73023;SDS011;61199;47.526;8.538;2023-07-13T14:05:54;4.03;;;2.00;;
73023;SDS011;61199;47.526;8.538;2023-07-13T14:08:23;6.17;;;2.07;;
73023;SDS011;61199;47.526;8.538;2023-07-13T14:10:50;8.93;;;2.00;;
73023;SDS011;61199;47.526;8.538;2023-07-13T14:13:30;6.97;;;1.83;;
73023;SDS011;61199;47.526;8.538;2023-07-13T14:16:02;3.93;;;1.93;;
73023;SDS011;61199;47.526;8.538;2023-07-13T14:18:29;4.70;;;1.90;;
73023;SDS011;61199;47.526;8.538;2023-07-13T14:20:55;3.97;;;1.80;;
73023;SDS011;61199;47.526;8.538;2023-07-13T14:23:21;5.80;;;1.77;;
73023;SDS011;61199;47.526;8.538;2023-07-13T14:25:48;4.70;;;2.33;;
73023;SDS011;61199;47.526;8.538;2023-07-13T14:28:26;3.70;;;2.00;;
73023;SDS011;61199;47.526;8.538;2023-07-13T14:30:54;4.30;;;1.80;;
73023;SDS011;61199;47.526;8.538;2023-07-13T14:33:21;9.80;;;1.97;;
73023;SDS011;61199;47.526;8.538;2023-07-13T14:35:49;7.63;;;1.70;;
73023;SDS011;61199;47.526;8.538;2023-07-13T14:38:18;8.70;;;1.97;;
73023;SDS011;61199;47.526;8.538;2023-07-13T14:40:46;8.80;;;2.10;;
73023;SDS011;61199;47.526;8.538;2023-07-13T14:43:13;6.13;;;1.70;;
73023;SDS011;61199;47.526;8.538;2023-07-13T14:45:43;10.20;;;2.10;;
73023;SDS011;61199;47.526;8.538;2023-07-13T14:48:13;3.30;;;1.70;;
73023;SDS011;61199;47.526;8.538;2023-07-13T14:50:43;2.87;;;1.70;;
73023;SDS011;61199;47.526;8.538;2023-07-13T14:53:10;2.77;;;1.60;;
73023;SDS011;61199;47.526;8.538;2023-07-13T14:55:38;6.07;;;1.90;;
73023;SDS011;61199;47.526;8.538;2023-07-13T14:58:05;4.60;;;2.47;;
73023;SDS011;61199;47.526;8.538;2023-07-13T15:00:32;3.77;;;1.87;;
73023;SDS011;61199;47.526;8.538;2023-07-13T15:02:59;7.00;;;1.97;;
73023;SDS011;61199;47.526;8.538;2023-07-13T15:05:28;3.23;;;1.40;;
73023;SDS011;61199;47.526;8.538;2023-07-13T15:08:00;14.40;;;1.80;;
73023;SDS011;61199;47.526;8.538;2023-07-13T15:10:30;9.23;;;1.87;;
73023;SDS011;61199;47.526;8.538;2023-07-13T15:13:00;3.17;;;1.80;;
73023;SDS011;61199;47.526;8.538;2023-07-13T15:15:30;6.50;;;1.90;;
73023;SDS011;61199;47.526;8.538;2023-07-13T15:17:59;12.03;;;2.47;;
73023;SDS011;61199;47.526;8.538;2023-07-13T15:20:28;3.13;;;1.67;;
73023;SDS011;61199;47.526;8.538;2023-07-13T15:22:59;7.33;;;1.83;;
73023;SDS011;61199;47.526;8.538;2023-07-13T15:25:27;9.47;;;1.77;;
73023;SDS011;61199;47.526;8.538;2023-07-13T15:27:57;8.13;;;2.00;;
73023;SDS011;61199;47.526;8.538;2023-07-13T15:30:27;7.70;;;1.80;;
73023;SDS011;61199;47.526;8.538;2023-07-13T15:32:56;4.07;;;1.57;;
73023;SDS011;61199;47.526;8.538;2023-07-13T15:35:28;3.83;;;1.50;;